Neillsville, Wisconsin
Current Conditions -  °F | °C
As of 8:54 AM on Wednesday 22 Oct 2014 (Local Time) from KMFI Reporting Station
Haze Haze  
Wind Chill: 32°   Ceiling: Unl
Heat Index: 36°   Visibility: 6mi
Dew Point: 34°   Wind: 5mph
Humidity: 93%   Direction: 130°SE
Pressure: 30.32"   Gusts: NA
Location:  44.56°N, 90.6°W
Report Text: KMFI 221354Z AUTO 13004KT 6SM BR CLR 02/01 A3032 RMK AO2 SLP281 T00220011
Loading
Personal Weather Stations






























Interactive Weather Map
Tropical Storm Tracking
New forecast layout! Learn more

10-Day Weather Forecast

Advertisements
Track Severe Weather on mobile